Arrowhead, Minnesota
Current Conditions -  °F | °C
As of 12:16 AM on Thursday 29 Jan 2015 (Local Time) from KCOQ Reporting Station
Haze Haze  
Wind Chill: 21°   Ceiling: 500
Heat Index: 28°   Visibility: 1.7mi
Dew Point: 27°   Wind: 7mph
Humidity: 93%   Direction: 280°W
Pressure: 29.83"   Gusts: NA
Location:  46.8211°N, 92.6871°W
Report Text: KCOQ 290616Z AUTO 28006KT 1 3/4SM BR OVC005 M02/M03 A2983 RMK AO2
Loading
Personal Weather Stations






























Interactive Weather Map New forecast layout! Learn more

10-Day Weather Forecast

Advertisements
Track Severe Weather on mobile